Time;durP1;ratioP1;P1;durP2;ratioP2;P2;SDS_P1;SDS_P2;PMS_P1;PMS_P2;Temp;Humidity;BMP_temperature;BMP_pressure;BME280_temperature;BME280_humidity;BME280_pressure;Samples;Min_cycle;Max_cycle;Signal;HPM_P1;HPM_P2
2022/03/27 00:02:01;;;;;;;83.03;32.63;;;;;;;-149.78;100.00;50133.09;5080370;28;20643;-69
2022/03/27 00:04:46;;;;;;;81.53;32.58;;;;;;;-149.78;100.00;50142.88;5078875;28;20051;-69
2022/03/27 00:07:30;;;;;;;74.53;31.42;;;;;;;-149.78;100.00;50142.88;5080535;28;20198;-69
2022/03/27 00:10:14;;;;;;;76.22;31.67;;;;;;;-149.78;100.00;50148.75;5080461;28;20090;-69
2022/03/27 00:12:58;;;;;;;77.25;32.80;;;;;;;-149.78;100.00;50156.56;5080196;28;20070;-70
2022/03/27 00:15:42;;;;;;;79.80;31.38;;;;;;;-149.78;100.00;50119.41;5080976;28;20117;-68
2022/03/27 00:18:26;;;;;;;75.85;31.45;;;;;;;-149.78;100.00;50146.81;5079554;28;20051;-68
2022/03/27 00:21:11;;;;;;;83.78;33.22;;;;;;;-149.78;100.00;50127.25;5078618;28;20097;-68
2022/03/27 00:23:55;;;;;;;80.38;32.20;;;;;;;-149.78;100.00;50174.19;5079791;28;20159;-68
2022/03/27 00:26:42;;;;;;;69.15;29.52;;;;;;;-149.78;100.00;50166.34;5080767;28;20143;-68
2022/03/27 00:29:27;;;;;;;74.97;30.40;;;;;;;-149.78;100.00;50119.41;5080983;28;20556;-68
2022/03/27 00:32:11;;;;;;;74.15;30.25;;;;;;;-149.78;100.00;50150.72;5081405;28;20054;-69
2022/03/27 00:34:56;;;;;;;81.50;30.20;;;;;;;-149.78;100.00;50148.75;5055551;28;20051;-68
2022/03/27 00:37:40;;;;;;;77.93;31.27;;;;;;;-149.78;100.00;50146.81;5080734;28;20676;-68
2022/03/27 00:40:25;;;;;;;84.90;31.42;;;;;;;-149.78;100.00;50185.91;5081129;28;20065;-68
2022/03/27 00:43:09;;;;;;;76.10;30.98;;;;;;;-149.78;100.00;50162.44;5080119;28;21296;-67
2022/03/27 00:45:54;;;;;;;76.70;30.40;;;;;;;-149.78;100.00;50154.63;5082998;28;20047;-67
2022/03/27 00:48:38;;;;;;;78.45;31.10;;;;;;;-149.78;100.00;50174.19;5088354;28;20047;-67
2022/03/27 00:51:23;;;;;;;74.53;30.02;;;;;;;-149.78;100.00;50111.59;5079186;28;20082;-68
2022/03/27 00:54:07;;;;;;;78.90;29.02;;;;;;;-149.78;100.00;50162.44;5079657;28;20093;-68
2022/03/27 00:56:51;;;;;;;81.05;30.58;;;;;;;-149.78;100.00;50189.81;5081113;28;20087;-67
2022/03/27 00:59:35;;;;;;;73.25;30.13;;;;;;;-149.78;100.00;50162.44;5065912;28;20189;-68
2022/03/27 01:02:25;;;;;;;69.38;27.95;;;;;;;-149.78;100.00;50170.25;5079966;28;20050;-68
2022/03/27 01:05:14;;;;;;;76.60;31.73;;;;;;;-149.78;100.00;50197.66;5097792;28;20154;-68
2022/03/27 01:08:05;;;;;;;73.30;30.40;;;;;;;-149.78;100.00;50154.63;5082131;28;20062;-68
2022/03/27 01:10:50;;;;;;;78.15;31.60;;;;;;;-149.78;100.00;50170.25;5096802;28;20098;-67
2022/03/27 01:13:35;;;;;;;81.00;32.20;;;;;;;-149.78;100.00;50168.31;5082167;28;20109;-68
2022/03/27 01:16:42;;;;;;;87.88;33.22;;;;;;;-149.78;100.00;50158.53;5096414;28;20553;-70
2022/03/27 01:19:27;;;;;;;85.40;34.28;;;;;;;-149.78;100.00;50135.06;5096006;28;20112;-67
2022/03/27 01:22:11;;;;;;;91.88;34.90;;;;;;;-149.78;100.00;50160.50;5096413;28;20074;-68
2022/03/27 01:24:55;;;;;;;81.60;33.05;;;;;;;-149.78;100.00;50115.50;5095828;28;20066;-67
2022/03/27 01:27:40;;;;;;;90.65;35.28;;;;;;;-149.78;100.00;50154.63;5094021;28;20100;-68
2022/03/27 01:30:24;;;;;;;86.63;35.60;;;;;;;-149.78;100.00;50146.81;5094699;28;20181;-68
2022/03/27 01:33:13;;;;;;;91.05;37.40;;;;;;;-149.78;100.00;50127.25;5096823;28;20233;-67
2022/03/27 01:35:57;;;;;;;88.25;36.50;;;;;;;-149.78;100.00;50166.34;5096018;28;20131;-67
2022/03/27 01:38:41;;;;;;;87.63;35.33;;;;;;;-149.78;100.00;50135.06;5095541;28;20096;-67
2022/03/27 01:41:25;;;;;;;85.38;33.75;;;;;;;-149.78;100.00;50197.66;5090883;28;20054;-68
2022/03/27 01:44:12;;;;;;;92.68;36.08;;;;;;;-149.78;100.00;50201.56;5079085;28;20093;-67
2022/03/27 01:46:57;;;;;;;92.95;35.95;;;;;;;-149.78;100.00;50174.19;5087471;28;20124;-68
2022/03/27 01:49:42;;;;;;;93.82;37.60;;;;;;;-149.78;100.00;50207.44;5080529;28;20105;-68
2022/03/27 01:52:26;;;;;;;98.00;37.45;;;;;;;-149.78;100.00;50174.19;5079449;28;20062;-67
2022/03/27 01:55:13;;;;;;;89.95;38.05;;;;;;;-149.78;100.00;50170.25;5078928;28;20079;-68
2022/03/27 01:57:58;;;;;;;82.38;34.78;;;;;;;-149.78;100.00;50156.56;5079443;28;20071;-67
2022/03/27 02:00:43;;;;;;;80.03;34.72;;;;;;;-149.78;100.00;50142.88;5078970;28;20039;-67
2022/03/27 02:03:28;;;;;;;80.70;33.53;;;;;;;-149.78;100.00;50154.63;5079698;28;20556;-67
2022/03/27 02:06:13;;;;;;;87.78;34.25;;;;;;;-149.78;100.00;50178.09;5076618;28;20494;-67
2022/03/27 02:08:59;;;;;;;78.28;32.63;;;;;;;-149.78;100.00;50164.41;5078175;28;20054;-69
2022/03/27 02:11:43;;;;;;;81.65;33.28;;;;;;;-149.78;100.00;50189.81;5077982;28;20109;-69
2022/03/27 02:14:11;;;;;;;82.68;32.00;;;;;;;-149.78;100.00;50158.53;5076299;28;20032;-69
2022/03/27 02:16:38;;;;;;;79.10;33.28;;;;;;;-149.78;100.00;50174.19;5078650;28;20064;-69
2022/03/27 02:19:09;;;;;;;85.53;32.45;;;;;;;-149.78;100.00;50144.84;5077941;28;20036;-69
2022/03/27 02:21:36;;;;;;;88.72;34.33;;;;;;;-149.78;100.00;50174.19;5077816;28;20122;-69
2022/03/27 02:24:05;;;;;;;78.60;33.10;;;;;;;-149.78;100.00;50146.81;5061754;28;20101;-69
2022/03/27 02:26:32;;;;;;;76.35;32.55;;;;;;;-149.78;100.00;50189.81;5053611;28;20450;-69
2022/03/27 02:28:58;;;;;;;75.80;32.85;;;;;;;-149.78;100.00;50180.03;5079496;28;20048;-69
2022/03/27 02:31:24;;;;;;;76.00;31.55;;;;;;;-149.78;100.00;50170.25;5080148;28;20044;-69
2022/03/27 02:33:50;;;;;;;84.32;33.78;;;;;;;-149.78;100.00;50209.38;5077180;28;20044;-69
2022/03/27 02:36:16;;;;;;;78.75;32.78;;;;;;;-149.78;100.00;50174.19;5078424;28;20483;-69
2022/03/27 02:38:43;;;;;;;89.28;33.08;;;;;;;-149.78;100.00;50170.25;5075310;28;20042;-69
2022/03/27 02:41:09;;;;;;;87.63;35.20;;;;;;;-149.78;100.00;50189.81;5079284;28;20075;-69
2022/03/27 02:43:38;;;;;;;85.43;34.63;;;;;;;-149.78;100.00;50197.66;5078940;28;20040;-69
2022/03/27 02:46:06;;;;;;;86.32;36.97;;;;;;;-149.78;100.00;50160.50;5079608;28;20639;-69
2022/03/27 02:48:32;;;;;;;95.35;35.85;;;;;;;-149.78;100.00;50201.56;5084560;28;20036;-69
2022/03/27 02:50:59;;;;;;;92.50;34.05;;;;;;;-149.78;100.00;50135.06;5074577;28;20036;-69
2022/03/27 02:53:26;;;;;;;90.95;34.70;;;;;;;-149.78;100.00;50193.72;5076093;28;20063;-69
2022/03/27 02:55:51;;;;;;;90.57;35.38;;;;;;;-149.78;100.00;50182.00;5059889;28;20368;-69
2022/03/27 02:58:17;;;;;;;88.05;36.00;;;;;;;-149.78;100.00;50166.34;5078654;28;20035;-69
2022/03/27 03:00:43;;;;;;;89.78;36.38;;;;;;;-149.78;100.00;50170.25;5059821;28;20476;-69
2022/03/27 03:03:10;;;;;;;88.25;35.13;;;;;;;-149.78;100.00;50174.19;5076902;28;20064;-69
2022/03/27 03:05:40;;;;;;;96.20;35.17;;;;;;;-149.78;100.00;50156.56;5076444;28;20032;-69
2022/03/27 03:08:11;;;;;;;84.38;33.22;;;;;;;-149.78;100.00;50185.91;5078166;28;20739;-69
2022/03/27 03:10:40;;;;;;;82.10;33.30;;;;;;;-149.78;100.00;50150.72;5078151;28;20047;-69
2022/03/27 03:13:08;;;;;;;87.22;34.38;;;;;;;-149.78;100.00;50158.53;5078740;28;20139;-69
2022/03/27 03:15:39;;;;;;;86.70;33.53;;;;;;;-149.78;100.00;50166.34;5077404;28;20504;-69
2022/03/27 03:18:05;;;;;;;83.53;32.42;;;;;;;-149.78;100.00;50170.25;5075422;28;20558;-69
2022/03/27 03:20:32;;;;;;;81.20;30.90;;;;;;;-149.78;100.00;50182.00;5078351;28;20119;-69
2022/03/27 03:22:58;;;;;;;80.82;31.33;;;;;;;-149.78;100.00;50174.19;5059927;28;20424;-69
2022/03/27 03:25:25;;;;;;;83.30;31.58;;;;;;;-149.78;100.00;50180.03;5081158;28;20036;-69
2022/03/27 03:27:51;;;;;;;85.40;32.15;;;;;;;-149.78;100.00;50187.88;5081362;28;20024;-69
2022/03/27 03:30:17;;;;;;;76.68;31.10;;;;;;;-149.78;100.00;50185.91;5081701;28;20050;-69
2022/03/27 03:32:43;;;;;;;85.93;31.80;;;;;;;-149.78;100.00;50189.81;5080581;28;20046;-69
2022/03/27 03:35:10;;;;;;;91.53;34.75;;;;;;;-149.78;100.00;50174.19;5061615;28;20097;-69
2022/03/27 03:37:36;;;;;;;83.43;31.75;;;;;;;-149.78;100.00;50174.19;5081556;28;20024;-69
2022/03/27 03:40:03;;;;;;;77.70;31.15;;;;;;;-149.78;100.00;50162.44;5080647;28;20202;-69
2022/03/27 03:42:29;;;;;;;78.60;30.65;;;;;;;-149.78;100.00;50168.31;5082020;28;20059;-69
2022/03/27 03:44:55;;;;;;;82.90;33.15;;;;;;;-149.78;100.00;50164.41;5063184;28;20067;-69
2022/03/27 03:47:20;;;;;;;76.15;30.73;;;;;;;-149.78;100.00;50174.19;5090311;28;20590;-69
2022/03/27 03:49:46;;;;;;;80.75;32.05;;;;;;;-149.78;100.00;50197.66;5082953;28;20039;-69
2022/03/27 03:52:12;;;;;;;77.70;30.85;;;;;;;-149.78;100.00;50236.75;5082142;28;20032;-69
2022/03/27 03:54:39;;;;;;;81.78;31.67;;;;;;;-149.78;100.00;50207.44;5081184;28;20761;-68
2022/03/27 03:57:06;;;;;;;74.93;29.73;;;;;;;-149.78;100.00;50205.47;5081237;28;20028;-69
2022/03/27 03:59:33;;;;;;;78.10;29.92;;;;;;;-149.78;100.00;50148.75;5080485;28;20032;-69
2022/03/27 04:01:59;;;;;;;73.05;29.42;;;;;;;-149.78;100.00;50170.25;5083010;28;20039;-69
2022/03/27 04:04:26;;;;;;;74.20;29.42;;;;;;;-149.78;100.00;50146.81;5082290;28;20119;-69
2022/03/27 04:06:52;;;;;;;76.53;30.48;;;;;;;-149.78;100.00;50176.13;5082064;28;20047;-69
2022/03/27 04:09:20;;;;;;;81.40;30.65;;;;;;;-149.78;100.00;50205.47;5081056;28;21495;-68
2022/03/27 04:11:48;;;;;;;76.90;32.13;;;;;;;-149.78;100.00;50197.66;5081134;28;20048;-69
2022/03/27 04:14:22;;;;;;;76.63;29.73;;;;;;;-149.78;100.00;50170.25;5082719;28;20423;-69
2022/03/27 04:16:54;;;;;;;;;;;;;;;-149.78;100.00;50154.63;5082043;28;20036;-69
2022/03/27 04:19:19;;;;;;;76.57;29.55;;;;;;;-149.78;100.00;50187.88;5080817;28;19942;-68
2022/03/27 04:21:45;;;;;;;77.60;30.00;;;;;;;-149.78;100.00;50213.28;5081853;28;20097;-67
2022/03/27 04:24:11;;;;;;;79.68;29.50;;;;;;;-149.78;100.00;50170.25;5080374;28;20028;-67
2022/03/27 04:26:39;;;;;;;79.32;29.70;;;;;;;-149.78;100.00;50176.13;5081472;28;20032;-67
2022/03/27 04:29:04;;;;;;;78.07;31.17;;;;;;;-149.78;100.00;50205.47;5081405;28;20043;-68
2022/03/27 04:31:31;;;;;;;76.90;30.90;;;;;;;-149.78;100.00;50201.56;5081969;28;20038;-67
2022/03/27 04:33:57;;;;;;;81.05;32.50;;;;;;;-149.78;100.00;50187.88;5080831;28;20457;-68
2022/03/27 04:36:23;;;;;;;89.97;31.15;;;;;;;-149.78;100.00;50189.81;5079137;28;20505;-67
2022/03/27 04:38:49;;;;;;;80.68;30.35;;;;;;;-149.78;100.00;50183.97;5081984;28;20028;-67
2022/03/27 04:41:15;;;;;;;82.72;32.10;;;;;;;-149.78;100.00;50174.19;5080508;28;20035;-68
2022/03/27 04:43:41;;;;;;;76.55;29.40;;;;;;;-149.78;100.00;50174.19;5080652;28;20521;-67
2022/03/27 04:46:07;;;;;;;72.53;28.15;;;;;;;-149.78;100.00;50209.38;5084665;28;20032;-67
2022/03/27 04:48:34;;;;;;;74.25;28.42;;;;;;;-149.78;100.00;50217.19;5088942;28;20824;-67
2022/03/27 04:51:02;;;;;;;68.88;27.10;;;;;;;-149.78;100.00;50217.19;5081837;28;20028;-68
2022/03/27 04:53:27;;;;;;;73.82;28.00;;;;;;;-149.78;100.00;50189.81;5082089;28;20040;-67
2022/03/27 04:55:53;;;;;;;73.38;27.38;;;;;;;-149.78;100.00;50170.25;5081313;28;20541;-67
2022/03/27 04:58:19;;;;;;;75.80;28.67;;;;;;;-149.78;100.00;50209.38;5081621;28;20040;-67
2022/03/27 05:00:45;;;;;;;74.47;29.75;;;;;;;-149.78;100.00;50213.28;5079549;28;20660;-67
2022/03/27 05:03:11;;;;;;;75.25;28.50;;;;;;;-149.78;100.00;50189.81;5082213;28;20043;-69
2022/03/27 05:05:39;;;;;;;69.75;28.15;;;;;;;-149.78;100.00;50213.28;5082069;28;20055;-69
2022/03/27 05:08:06;;;;;;;80.90;30.60;;;;;;;-149.78;100.00;50252.41;5081516;28;20690;-69
2022/03/27 05:10:31;;;;;;;82.75;30.38;;;;;;;-149.78;100.00;50185.91;5079310;28;20098;-69
2022/03/27 05:12:57;;;;;;;78.63;28.77;;;;;;;-149.78;100.00;50197.66;5079693;28;20048;-69
2022/03/27 05:15:23;;;;;;;72.05;27.48;;;;;;;-149.78;100.00;50178.09;5079407;28;20036;-69
2022/03/27 05:17:50;;;;;;;73.57;28.08;;;;;;;-149.78;100.00;50219.16;5080949;28;20031;-69
2022/03/27 05:20:17;;;;;;;70.93;26.77;;;;;;;-149.78;100.00;50209.38;5081880;28;20024;-69
2022/03/27 05:22:43;;;;;;;75.95;27.08;;;;;;;-149.78;100.00;50213.28;5080904;28;20347;-69
2022/03/27 05:25:12;;;;;;;75.20;26.10;;;;;;;-149.78;100.00;50225.03;5080973;28;20036;-69
2022/03/27 05:27:48;;;;;;;67.18;25.80;;;;;;;-149.78;100.00;50213.28;5080026;28;20051;-69
2022/03/27 05:30:19;;;;;;;69.03;25.77;;;;;;;-149.78;100.00;50197.66;5079190;28;20051;-69
2022/03/27 05:32:45;;;;;;;61.58;24.52;;;;;;;-149.78;100.00;50234.81;5080669;28;20075;-69
2022/03/27 05:35:12;;;;;;;69.47;24.92;;;;;;;-149.78;100.00;50228.94;5062050;28;20424;-68
2022/03/27 05:37:38;;;;;;;66.03;24.83;;;;;;;-149.78;100.00;50205.47;5080244;28;20533;-69
2022/03/27 05:40:06;;;;;;;59.53;24.20;;;;;;;-149.78;100.00;50209.38;5081075;28;20110;-69
2022/03/27 05:42:32;;;;;;;57.78;22.10;;;;;;;-149.78;100.00;50219.16;5082502;28;20044;-70
2022/03/27 05:44:59;;;;;;;62.15;23.77;;;;;;;-149.78;100.00;50205.47;5078614;28;20184;-69
2022/03/27 05:47:26;;;;;;;64.75;22.70;;;;;;;-149.78;100.00;50185.91;5089972;28;20047;-69
2022/03/27 05:49:52;;;;;;;65.32;23.05;;;;;;;-149.78;100.00;50219.16;5079777;28;20146;-69
2022/03/27 05:52:18;;;;;;;60.38;23.45;;;;;;;-149.78;100.00;50205.47;5080747;28;20146;-69
2022/03/27 05:54:44;;;;;;;57.60;22.45;;;;;;;-149.78;100.00;50244.59;5078619;28;20058;-69
2022/03/27 05:57:09;;;;;;;65.32;22.55;;;;;;;-149.78;100.00;50213.28;5078737;28;20616;-69
2022/03/27 05:59:35;;;;;;;59.65;23.40;;;;;;;-149.78;100.00;50221.13;5079701;28;20054;-69
2022/03/27 06:02:01;;;;;;;60.55;22.80;;;;;;;-149.78;100.00;50185.91;5078487;28;20097;-69
2022/03/27 06:04:26;;;;;;;57.85;22.73;;;;;;;-149.78;100.00;50221.13;5080091;28;20696;-68
2022/03/27 06:06:52;;;;;;;59.47;23.20;;;;;;;-149.78;100.00;50217.19;5079658;28;20536;-69
2022/03/27 06:09:18;;;;;;;58.63;21.80;;;;;;;-149.78;100.00;50213.28;5078649;28;20119;-69
2022/03/27 06:11:43;;;;;;;54.28;22.10;;;;;;;-149.78;100.00;50209.38;5078716;28;20098;-68
2022/03/27 06:14:09;;;;;;;56.30;22.92;;;;;;;-149.78;100.00;50217.19;5078149;28;20044;-69
2022/03/27 06:16:36;;;;;;;60.58;22.65;;;;;;;-149.78;100.00;50201.56;5074341;28;20078;-68
2022/03/27 06:19:02;;;;;;;61.42;22.73;;;;;;;-149.78;100.00;50225.03;5076912;28;20963;-68
2022/03/27 06:21:28;;;;;;;59.33;21.35;;;;;;;-149.78;100.00;50180.03;5076497;28;20062;-69
2022/03/27 06:23:54;;;;;;;60.80;22.40;;;;;;;-149.78;100.00;50150.72;5075960;28;20047;-68
2022/03/27 06:26:19;;;;;;;57.33;21.02;;;;;;;-149.78;100.00;50197.66;5076471;28;20036;-69
2022/03/27 06:28:45;;;;;;;56.25;23.73;;;;;;;-149.78;100.00;50217.19;5074700;28;20620;-69
2022/03/27 06:31:11;;;;;;;54.90;20.83;;;;;;;-149.78;100.00;50201.56;5077863;28;20064;-69
2022/03/27 06:33:39;;;;;;;57.03;21.85;;;;;;;-149.78;100.00;50221.13;5077095;28;20044;-68
2022/03/27 06:36:05;;;;;;;62.60;21.83;;;;;;;-149.78;100.00;50225.03;5077352;28;20217;-68
2022/03/27 06:38:31;;;;;;;56.25;20.73;;;;;;;-149.78;100.00;50205.47;5075939;28;20043;-70
2022/03/27 06:40:57;;;;;;;61.35;22.23;;;;;;;-149.78;100.00;50205.47;5077854;28;20390;-69
2022/03/27 06:43:22;;;;;;;54.00;21.67;;;;;;;-149.78;100.00;50203.50;5076368;28;20042;-69
2022/03/27 06:45:49;;;;;;;53.15;21.27;;;;;;;-149.78;100.00;50217.19;5079130;28;20035;-68
2022/03/27 06:48:15;;;;;;;57.70;21.75;;;;;;;-149.78;100.00;50201.56;5083065;28;20036;-69
2022/03/27 06:50:44;;;;;;;55.47;21.25;;;;;;;-149.78;100.00;50178.09;5077857;28;20026;-69
2022/03/27 06:53:14;;;;;;;55.47;22.70;;;;;;;-149.78;100.00;50248.50;5078235;28;20059;-69
2022/03/27 06:55:41;;;;;;;57.50;21.45;;;;;;;-149.78;100.00;50195.69;5076249;28;20039;-69
2022/03/27 06:58:07;;;;;;;55.03;22.20;;;;;;;-149.78;100.00;50154.63;5074250;28;20066;-68
2022/03/27 07:03:18;;;;;;;54.13;22.00;;;;;;;-149.78;100.00;50207.44;5077513;28;20119;-69
2022/03/27 07:05:44;;;;;;;46.80;20.48;;;;;;;-149.78;100.00;50168.31;5076580;28;20522;-69
2022/03/27 07:08:12;;;;;;;50.60;20.80;;;;;;;-149.78;100.00;50166.34;5077414;28;20390;-69
2022/03/27 07:10:38;;;;;;;52.25;21.70;;;;;;;-149.78;100.00;50174.19;5077443;28;20117;-69
2022/03/27 07:13:08;;;;;;;55.53;21.95;;;;;;;-149.78;100.00;50150.72;5076370;28;20359;-69
2022/03/27 07:15:34;;;;;;;49.95;21.67;;;;;;;-149.78;100.00;50185.91;5058519;28;20096;-70
2022/03/27 07:17:59;;;;;;;48.63;20.65;;;;;;;-149.78;100.00;50166.34;5077644;28;20109;-68
2022/03/27 07:20:28;;;;;;;43.30;19.23;;;;;;;-149.78;100.00;50162.44;5061987;28;20051;-68
2022/03/27 07:22:55;;;;;;;52.00;21.02;;;;;;;-149.78;100.00;50152.66;5077937;28;20040;-68
2022/03/27 07:25:23;;;;;;;49.42;21.13;;;;;;;-149.78;100.00;50205.47;5060871;28;20833;-68
2022/03/27 07:27:49;;;;;;;48.67;21.02;;;;;;;-149.78;100.00;50185.91;5078261;28;20081;-68
2022/03/27 07:30:15;;;;;;;48.10;21.25;;;;;;;-149.78;100.00;50162.44;5078660;28;20028;-71
2022/03/27 07:32:45;;;;;;;55.80;23.08;;;;;;;-149.78;100.00;50174.19;5078287;28;20514;-69
2022/03/27 07:35:14;;;;;;;52.20;22.58;;;;;;;-149.78;100.00;50189.81;5075340;28;20082;-69
2022/03/27 07:37:42;;;;;;;50.58;21.90;;;;;;;-149.78;100.00;50176.13;5075448;28;20368;-69
2022/03/27 07:40:09;;;;;;;53.03;21.98;;;;;;;-149.78;100.00;50158.53;5074451;28;20036;-68
2022/03/27 07:42:36;;;;;;;53.95;22.63;;;;;;;-149.78;100.00;50154.63;5075471;28;20418;-69
2022/03/27 07:45:03;;;;;;;57.10;22.75;;;;;;;-149.78;100.00;50131.16;5076240;28;20040;-70
2022/03/27 07:47:29;;;;;;;52.13;21.75;;;;;;;-149.78;100.00;50137.03;5079103;28;20029;-72
2022/03/27 07:49:55;;;;;;;45.80;20.58;;;;;;;-149.78;100.00;50158.53;5074709;28;20490;-71
2022/03/27 07:52:22;;;;;;;45.70;20.15;;;;;;;-149.78;100.00;50170.25;5076448;28;20053;-70
2022/03/27 07:54:49;;;;;;;46.97;19.38;;;;;;;-149.78;100.00;50166.34;5075238;28;20098;-70
2022/03/27 07:57:15;;;;;;;46.45;19.50;;;;;;;-149.78;100.00;50170.25;5057098;28;20086;-70
2022/03/27 07:59:41;;;;;;;51.95;20.20;;;;;;;-149.78;100.00;50158.53;5075085;28;20433;-70
2022/03/27 08:02:07;;;;;;;43.15;19.30;;;;;;;-149.78;100.00;50162.44;5074036;28;20048;-70
2022/03/27 08:04:34;;;;;;;48.38;19.85;;;;;;;-149.78;100.00;50146.81;5076531;28;20054;-70
2022/03/27 08:07:01;;;;;;;49.78;20.73;;;;;;;-149.78;100.00;50138.97;5077624;28;20078;-72
2022/03/27 08:09:26;;;;;;;43.35;19.30;;;;;;;-149.78;100.00;50170.25;5060583;28;20707;-72
2022/03/27 08:11:52;;;;;;;45.63;19.55;;;;;;;-149.78;100.00;50119.41;5071143;28;20044;-73
2022/03/27 08:14:18;;;;;;;42.70;19.40;;;;;;;-149.78;100.00;50144.84;5078488;28;20044;-73
2022/03/27 08:16:44;;;;;;;45.92;20.63;;;;;;;-149.78;100.00;50160.50;5076833;28;20040;-71
2022/03/27 08:19:10;;;;;;;39.55;19.00;;;;;;;-149.78;100.00;50138.97;5076027;28;20135;-71
2022/03/27 08:21:39;;;;;;;48.20;20.98;;;;;;;-149.78;100.00;50158.53;5075057;28;20100;-72
2022/03/27 08:24:06;;;;;;;48.17;20.42;;;;;;;-149.78;100.00;50107.69;5075277;28;20043;-71
2022/03/27 08:29:16;;;;;;;45.70;20.27;;;;;;;-149.78;100.00;50115.50;5073108;28;20067;-72
2022/03/27 08:31:45;;;;;;;47.38;20.40;;;;;;;-149.78;100.00;50094.00;5075850;28;20031;-70
2022/03/27 08:34:10;;;;;;;45.85;20.50;;;;;;;-149.78;100.00;50084.22;5073631;28;20067;-70
2022/03/27 08:36:36;;;;;;;45.80;20.33;;;;;;;-149.78;100.00;50135.06;5074792;28;20036;-70
2022/03/27 08:39:02;;;;;;;48.88;21.65;;;;;;;-149.78;100.00;50099.88;5059645;28;20036;-72
2022/03/27 08:41:28;;;;;;;48.50;21.63;;;;;;;-149.78;100.00;50123.34;5077140;28;20028;-69
2022/03/27 08:43:58;;;;;;;42.35;20.80;;;;;;;-149.78;100.00;50088.13;5075088;28;20035;-71
2022/03/27 08:46:29;;;;;;;44.85;21.38;;;;;;;-149.78;100.00;50068.56;5083874;28;20125;-72
2022/03/27 08:49:07;;;;;;;43.38;19.80;;;;;;;-149.78;100.00;50099.88;5085775;28;20051;-70
2022/03/27 08:51:41;;;;;;;49.17;22.20;;;;;;;-149.78;100.00;50107.69;5079760;28;20039;-73
2022/03/27 08:54:16;;;;;;;42.38;20.25;;;;;;;-149.78;100.00;50094.00;5079368;28;20631;-73
2022/03/27 08:56:49;;;;;;;46.90;20.85;;;;;;;-149.78;100.00;50017.72;5059431;28;20032;-74
2022/03/27 08:59:16;;;;;;;42.45;20.42;;;;;;;-149.78;100.00;49998.19;5077696;28;20035;-73
2022/03/27 09:01:43;;;;;;;51.33;21.02;;;;;;;-149.78;100.00;50013.81;5078563;28;20032;-73
2022/03/27 09:04:11;;;;;;;43.45;21.30;;;;;;;-149.78;100.00;50037.28;5081093;28;20223;-73
2022/03/27 09:06:36;;;;;;;42.92;21.45;;;;;;;-149.78;100.00;50006.00;5081231;28;20084;-74
2022/03/27 09:09:02;;;;;;;40.60;21.45;;;;;;;-149.78;100.00;50002.09;5079487;28;20028;-73
2022/03/27 09:11:31;;;;;;;41.63;21.42;;;;;;;-149.78;100.00;49949.28;5079344;28;20028;-73
2022/03/27 09:13:57;;;;;;;41.28;21.63;;;;;;;-149.78;100.00;49959.06;5078035;28;20036;-73
2022/03/27 09:16:23;;;;;;;41.55;21.13;;;;;;;-149.78;100.00;49986.44;5079314;28;20055;-73
2022/03/27 09:19:01;;;;;;;40.75;21.45;;;;;;;-149.78;100.00;50017.72;5059793;28;20036;-72
2022/03/27 09:21:28;;;;;;;44.08;24.23;;;;;;;-149.78;100.00;49994.25;5077139;28;20473;-73
2022/03/27 09:23:56;;;;;;;35.60;18.85;;;;;;;-149.78;100.00;50009.91;5061297;28;20032;-73
2022/03/27 09:26:22;;;;;;;38.15;20.33;;;;;;;-149.78;100.00;49982.53;5079049;28;20058;-72
2022/03/27 09:28:52;;;;;;;37.75;20.02;;;;;;;-149.78;100.00;50006.00;5080392;28;20068;-71
2022/03/27 09:31:23;;;;;;;31.60;16.50;;;;;;;-149.78;100.00;49994.25;5079664;28;20050;-70
2022/03/27 09:33:57;;;;;;;29.08;15.55;;;;;;;-149.78;100.00;50002.09;5079257;28;20051;-71
2022/03/27 09:36:26;;;;;;;28.70;14.50;;;;;;;-149.78;100.00;49945.38;5079269;28;20044;-70
2022/03/27 09:39:11;;;;;;;26.40;13.85;;;;;;;-149.78;100.00;49978.63;5077372;28;20036;-71
2022/03/27 09:41:44;;;;;;;27.35;11.35;;;;;;;-149.78;100.00;50002.09;5077506;28;20082;-71
2022/03/27 09:44:16;;;;;;;21.48;11.27;;;;;;;-149.78;100.00;50021.63;5079475;28;20028;-71
2022/03/27 09:47:02;;;;;;;21.63;10.73;;;;;;;-149.78;100.00;50013.81;5083546;28;20036;-69
2022/03/27 09:49:31;;;;;;;19.95;10.82;;;;;;;-149.78;100.00;49982.53;5074608;28;20028;-68
2022/03/27 09:51:59;;;;;;;20.73;10.73;;;;;;;-149.78;100.00;50006.00;5056489;28;20538;-70
2022/03/27 09:54:27;;;;;;;17.38;9.38;;;;;;;-149.78;100.00;50029.47;5073608;28;20348;-69
2022/03/27 09:56:54;;;;;;;17.60;8.50;;;;;;;-149.78;100.00;49986.44;5071997;28;20096;-69
2022/03/27 09:59:28;;;;;;;16.45;9.05;;;;;;;-149.78;100.00;49908.22;5069178;28;20043;-69
2022/03/27 10:02:14;;;;;;;21.88;9.88;;;;;;;-149.78;100.00;49935.59;5073154;28;20904;-69
2022/03/27 10:04:51;;;;;;;15.00;8.40;;;;;;;-149.78;100.00;50002.09;5071278;28;20471;-69
2022/03/27 10:07:18;;;;;;;14.00;8.10;;;;;;;-149.78;100.00;50041.19;5075827;28;20039;-69
2022/03/27 10:09:44;;;;;;;16.02;8.88;;;;;;;-149.78;100.00;49990.34;5075729;28;20081;-69
2022/03/27 10:12:12;;;;;;;16.80;8.95;;;;;;;-149.78;100.00;50025.56;5075685;28;20078;-70
2022/03/27 10:14:41;;;;;;;16.42;8.23;;;;;;;-149.78;100.00;50049.03;5077053;28;20035;-68
2022/03/27 10:17:09;;;;;;;17.30;8.23;;;;;;;-149.78;100.00;50021.63;5075399;28;20039;-69
2022/03/27 10:19:46;;;;;;;15.40;8.60;;;;;;;-149.78;100.00;50029.47;5072707;28;20457;-68
2022/03/27 10:22:20;;;;;;;17.42;9.23;;;;;;;-149.78;100.00;50013.81;5072636;28;20032;-72
2022/03/27 10:24:46;;;;;;;15.80;9.23;;;;;;;-149.78;100.00;49982.53;5073670;28;20050;-72
2022/03/27 10:27:14;;;;;;;19.98;8.93;;;;;;;-149.78;100.00;49982.53;5073057;28;20189;-71
2022/03/27 10:29:40;;;;;;;10.80;6.13;;;;;;;-149.78;100.00;49998.19;5074989;28;20036;-69
2022/03/27 10:32:10;;;;;;;7.78;4.70;;;;;;;-149.78;100.00;49994.25;5074901;28;20028;-68
2022/03/27 10:35:01;;;;;;;8.25;4.25;;;;;;;-149.78;100.00;50009.91;5075434;28;20555;-68
2022/03/27 10:37:50;;;;;;;6.63;4.13;;;;;;;-149.78;100.00;49974.72;5076759;28;20522;-69
2022/03/27 10:40:23;;;;;;;7.25;3.50;;;;;;;-149.78;100.00;49978.63;5075006;28;20028;-69
2022/03/27 10:43:25;;;;;;;7.68;4.85;;;;;;;-149.78;100.00;49935.59;5075521;28;20058;-68
2022/03/27 10:46:10;;;;;;;10.40;5.25;;;;;;;-149.78;100.00;49951.25;5079808;28;20020;-69
2022/03/27 10:48:42;;;;;;;13.82;6.95;;;;;;;-149.78;100.00;49962.97;5084607;28;20043;-69
2022/03/27 10:51:10;;;;;;;14.02;7.60;;;;;;;-149.78;100.00;49966.88;5080290;28;20997;-69
2022/03/27 10:53:36;;;;;;;13.85;7.97;;;;;;;-149.78;100.00;49990.34;5077582;28;20039;-68
2022/03/27 10:56:03;;;;;;;15.73;7.75;;;;;;;-149.78;100.00;49966.88;5076950;28;20035;-68
2022/03/27 10:58:34;;;;;;;17.02;9.38;;;;;;;-149.78;100.00;49986.44;5076832;28;20039;-68
2022/03/27 11:01:05;;;;;;;15.95;9.43;;;;;;;-149.78;100.00;50013.81;5075363;28;20153;-68
2022/03/27 11:04:06;;;;;;;16.52;9.57;;;;;;;-149.78;100.00;50052.94;5075787;28;20046;-68
2022/03/27 11:06:35;;;;;;;20.63;10.68;;;;;;;-149.78;100.00;50025.56;5074598;28;20024;-69
2022/03/27 11:09:03;;;;;;;20.85;9.77;;;;;;;-149.78;100.00;50060.75;5075337;28;20036;-69
2022/03/27 11:11:38;;;;;;;19.85;10.48;;;;;;;-149.78;100.00;50049.03;5076109;28;20088;-69
2022/03/27 11:14:06;;;;;;;18.83;10.73;;;;;;;-149.78;100.00;50023.59;5075409;28;20039;-69
2022/03/27 11:16:37;;;;;;;19.27;10.63;;;;;;;-149.78;100.00;50017.72;5075047;28;20028;-69
2022/03/27 11:19:04;;;;;;;20.90;10.90;;;;;;;-149.78;100.00;49972.75;5077048;28;20030;-69